createdAt,value
2018-05-03T00:00:22.757Z,3.20
2018-05-03T00:01:22.725Z,3.00
2018-05-03T00:02:22.709Z,3.10
2018-05-03T00:03:22.675Z,3.30
2018-05-03T00:04:22.659Z,3.30
2018-05-03T00:05:22.623Z,3.30
2018-05-03T00:06:22.604Z,3.20
2018-05-03T00:07:22.571Z,3.40
2018-05-03T00:08:22.556Z,3.10
2018-05-03T00:09:22.521Z,3.20
2018-05-03T00:10:22.499Z,3.20
2018-05-03T00:11:22.471Z,3.40
2018-05-03T00:12:22.449Z,3.40
2018-05-03T00:13:22.423Z,3.30
2018-05-03T00:14:22.399Z,3.20
2018-05-03T00:15:22.373Z,3.10
2018-05-03T00:16:22.344Z,3.30
2018-05-03T00:17:22.324Z,3.10
2018-05-03T00:18:22.341Z,3.40
2018-05-03T00:19:22.274Z,3.40
2018-05-03T00:20:22.241Z,3.50
2018-05-03T00:21:22.221Z,3.40
2018-05-03T00:22:22.193Z,3.40
2018-05-03T00:23:22.165Z,3.40
2018-05-03T00:24:22.152Z,3.30
2018-05-03T00:25:22.114Z,3.20
2018-05-03T00:26:22.094Z,3.50
2018-05-03T00:27:22.058Z,3.30
2018-05-03T00:28:22.042Z,3.40
2018-05-03T00:29:22.016Z,3.50
2018-05-03T00:30:21.988Z,3.40
2018-05-03T00:31:21.958Z,3.40
2018-05-03T00:32:21.940Z,3.30
2018-05-03T00:33:21.917Z,3.60
2018-05-03T00:34:21.887Z,3.20
2018-05-03T00:35:21.861Z,3.50
2018-05-03T00:36:21.840Z,3.80
2018-05-03T00:37:21.808Z,3.60
2018-05-03T00:38:21.787Z,3.60
2018-05-03T00:39:21.753Z,3.70
2018-05-03T00:40:21.731Z,3.40
2018-05-03T00:41:21.719Z,3.40
2018-05-03T00:42:21.683Z,3.30
2018-05-03T00:43:21.653Z,3.50
2018-05-03T00:44:21.627Z,3.40
2018-05-03T00:45:21.603Z,3.50
2018-05-03T00:46:21.582Z,3.30
2018-05-03T00:47:21.550Z,3.60
2018-05-03T00:48:21.526Z,3.50
2018-05-03T00:49:21.503Z,3.40
2018-05-03T00:50:21.480Z,3.50
2018-05-03T00:51:21.448Z,3.50
2018-05-03T00:52:21.419Z,3.70
2018-05-03T00:53:21.402Z,3.40
2018-05-03T00:54:21.371Z,3.60
2018-05-03T00:55:21.352Z,3.50
2018-05-03T00:56:21.323Z,3.60
2018-05-03T00:57:21.294Z,3.30
2018-05-03T00:58:21.267Z,3.40
2018-05-03T00:59:21.247Z,3.60
2018-05-03T01:00:21.221Z,3.50
2018-05-03T01:01:21.188Z,3.90
2018-05-03T01:02:21.168Z,3.50
2018-05-03T01:03:21.143Z,3.70
2018-05-03T01:04:21.119Z,3.40
2018-05-03T01:05:21.088Z,3.90
2018-05-03T01:06:21.070Z,3.80
2018-05-03T01:07:21.036Z,3.70
2018-05-03T01:08:21.021Z,3.80
2018-05-03T01:09:20.982Z,4.00
2018-05-03T01:10:20.966Z,3.80
2018-05-03T01:11:20.936Z,3.70
2018-05-03T01:12:20.916Z,4.40
2018-05-03T01:13:20.879Z,4.10
2018-05-03T01:14:20.861Z,4.10
2018-05-03T01:15:20.832Z,4.20
2018-05-03T01:16:20.809Z,4.20
2018-05-03T01:17:20.780Z,3.80
2018-05-03T01:18:20.756Z,4.00
2018-05-03T01:19:20.729Z,4.50
2018-05-03T01:20:20.707Z,4.30
2018-05-03T01:21:20.681Z,4.30
2018-05-03T01:22:20.662Z,4.40
2018-05-03T01:23:20.624Z,4.60
2018-05-03T01:24:20.607Z,4.50
2018-05-03T01:25:20.573Z,4.70
2018-05-03T01:26:20.552Z,4.40
2018-05-03T01:27:20.519Z,4.80
2018-05-03T01:28:20.503Z,4.60
2018-05-03T01:29:20.466Z,4.70
2018-05-03T01:30:20.442Z,4.50
2018-05-03T01:31:20.428Z,4.90
2018-05-03T01:32:20.397Z,4.60
2018-05-03T01:33:20.374Z,4.90
2018-05-03T01:34:20.346Z,4.70
2018-05-03T01:35:20.314Z,4.50
2018-05-03T01:36:20.296Z,5.00
2018-05-03T01:37:20.260Z,4.90
2018-05-03T01:38:20.242Z,5.00
2018-05-03T01:39:20.212Z,4.80
2018-05-03T01:40:20.191Z,5.20
2018-05-03T01:41:20.164Z,5.10
2018-05-03T01:42:20.139Z,5.10
2018-05-03T01:43:20.115Z,4.70
2018-05-03T01:44:20.089Z,5.10
2018-05-03T01:45:20.057Z,4.60
2018-05-03T01:46:20.038Z,5.20
2018-05-03T01:47:20.006Z,5.20
2018-05-03T01:48:19.987Z,5.30
2018-05-03T01:49:19.956Z,5.40
2018-05-03T01:50:19.928Z,5.30
2018-05-03T01:51:19.911Z,5.60
2018-05-03T01:52:19.879Z,5.40
2018-05-03T01:53:19.850Z,5.30
2018-05-03T01:54:19.824Z,5.30
2018-05-03T01:55:19.801Z,5.50
2018-05-03T01:56:19.782Z,5.80
2018-05-03T01:57:19.743Z,5.60
2018-05-03T01:58:19.720Z,5.60
2018-05-03T01:59:19.692Z,5.90
2018-05-03T02:00:19.671Z,5.70
2018-05-03T02:01:19.645Z,5.80
2018-05-03T02:02:19.615Z,5.80
2018-05-03T02:03:19.601Z,5.80
2018-05-03T02:04:19.569Z,6.10
2018-05-03T02:05:19.545Z,6.50
2018-05-03T02:06:19.523Z,6.20
2018-05-03T02:07:19.485Z,5.90
2018-05-03T02:08:19.471Z,6.20
2018-05-03T02:09:19.434Z,6.70
2018-05-03T02:10:19.415Z,6.70
2018-05-03T02:11:19.387Z,6.40
2018-05-03T02:12:19.365Z,6.20
2018-05-03T02:13:19.335Z,6.90
2018-05-03T02:14:19.304Z,6.50
2018-05-03T02:15:19.288Z,6.60
2018-05-03T02:16:19.259Z,7.30
2018-05-03T02:17:19.237Z,6.70
2018-05-03T02:18:19.209Z,6.90
2018-05-03T02:19:19.183Z,6.60
2018-05-03T02:20:19.152Z,6.60
2018-05-03T02:21:19.133Z,7.10
2018-05-03T02:22:19.104Z,7.10
2018-05-03T02:23:19.081Z,6.70
2018-05-03T02:24:19.052Z,7.10
2018-05-03T02:25:19.031Z,7.20
2018-05-03T02:26:19.006Z,7.10
2018-05-03T02:27:18.971Z,7.50
2018-05-03T02:28:18.946Z,7.50
2018-05-03T02:29:18.926Z,7.40
2018-05-03T02:30:18.895Z,7.60
2018-05-03T02:31:18.865Z,7.20
2018-05-03T02:32:18.850Z,7.40
2018-05-03T02:33:18.816Z,7.60
2018-05-03T02:34:18.791Z,7.30
2018-05-03T02:35:18.777Z,7.80
2018-05-03T02:36:18.744Z,7.80
2018-05-03T02:37:18.722Z,7.70
2018-05-03T02:38:18.705Z,7.80
2018-05-03T02:39:18.664Z,8.10
2018-05-03T02:40:18.638Z,7.90
2018-05-03T02:41:18.616Z,8.30
2018-05-03T02:42:18.588Z,8.10
2018-05-03T02:43:18.566Z,8.40
2018-05-03T02:44:18.530Z,8.40
2018-05-03T02:45:18.515Z,8.40
2018-05-03T02:46:18.485Z,9.10
2018-05-03T02:47:18.461Z,9.40
2018-05-03T02:48:18.450Z,9.00
2018-05-03T02:49:18.404Z,9.10
2018-05-03T02:50:18.392Z,9.00
2018-05-03T02:51:18.355Z,9.30
2018-05-03T02:52:18.333Z,9.20
2018-05-03T02:53:18.306Z,9.30
2018-05-03T02:54:18.278Z,9.60
2018-05-03T02:55:18.250Z,10.60
2018-05-03T02:56:18.228Z,10.10
2018-05-03T02:57:18.204Z,10.60
2018-05-03T02:58:18.178Z,10.50
2018-05-03T02:59:18.144Z,10.40
2018-05-03T03:00:18.129Z,11.00
2018-05-03T03:01:18.095Z,10.60
2018-05-03T03:02:18.171Z,11.20
2018-05-03T03:03:18.045Z,11.30
2018-05-03T03:04:18.024Z,11.60
2018-05-03T03:05:17.995Z,11.60
2018-05-03T03:06:17.964Z,11.40
2018-05-03T03:07:17.946Z,11.30
2018-05-03T03:08:17.912Z,11.50
2018-05-03T03:09:17.892Z,11.50
2018-05-03T03:10:17.862Z,11.60
2018-05-03T03:11:17.839Z,11.50
2018-05-03T03:12:17.813Z,12.00
2018-05-03T03:13:17.789Z,11.90
2018-05-03T03:14:17.757Z,11.90
2018-05-03T03:15:17.799Z,12.30
2018-05-03T03:16:17.706Z,12.30
2018-05-03T03:17:17.693Z,12.40
2018-05-03T03:18:17.664Z,12.50
2018-05-03T03:19:17.636Z,12.60
2018-05-03T03:20:17.610Z,12.50
2018-05-03T03:21:17.585Z,12.80
2018-05-03T03:22:17.558Z,12.70
2018-05-03T03:23:17.525Z,12.10
2018-05-03T03:24:17.500Z,12.40
2018-05-03T03:25:17.477Z,12.70
2018-05-03T03:26:17.446Z,12.90
2018-05-03T03:27:17.430Z,12.70
2018-05-03T03:28:17.396Z,12.80
2018-05-03T03:29:17.378Z,12.60
2018-05-03T03:30:17.346Z,13.00
2018-05-03T03:31:17.324Z,12.70
2018-05-03T03:32:17.295Z,13.00
2018-05-03T03:33:17.272Z,12.50
2018-05-03T03:34:17.249Z,13.00
2018-05-03T03:35:17.214Z,12.60
2018-05-03T03:36:17.193Z,12.90
2018-05-03T03:37:17.167Z,13.30
2018-05-03T03:38:17.145Z,13.40
2018-05-03T03:39:17.114Z,13.60
2018-05-03T03:40:17.086Z,13.30
2018-05-03T03:41:17.069Z,13.20
2018-05-03T03:42:17.041Z,14.10
2018-05-03T03:43:17.009Z,13.70
2018-05-03T03:44:16.991Z,13.80
2018-05-03T03:45:16.958Z,13.50
2018-05-03T03:46:16.934Z,14.10
2018-05-03T03:47:16.906Z,14.00
2018-05-03T03:48:16.888Z,14.20
2018-05-03T03:49:16.856Z,13.70
2018-05-03T03:50:16.828Z,14.60
2018-05-03T03:51:16.811Z,14.70
2018-05-03T03:52:16.775Z,14.50
2018-05-03T03:53:16.801Z,14.30
2018-05-03T03:54:16.735Z,14.90
2018-05-03T03:55:16.701Z,15.00
2018-05-03T03:56:16.677Z,14.00
2018-05-03T03:57:16.651Z,14.80
2018-05-03T03:58:16.623Z,14.10
2018-05-03T03:59:16.602Z,15.20
2018-05-03T04:00:16.575Z,15.20
2018-05-03T04:01:16.543Z,15.10
2018-05-03T04:02:16.523Z,15.40
2018-05-03T04:03:16.497Z,16.20
2018-05-03T04:04:16.467Z,15.50
2018-05-03T04:05:16.443Z,16.20
2018-05-03T04:06:16.415Z,16.90
2018-05-03T04:07:16.406Z,16.40
2018-05-03T04:08:16.364Z,17.00
2018-05-03T04:09:16.340Z,16.40
2018-05-03T04:10:16.309Z,16.70
2018-05-03T04:11:16.294Z,17.10
2018-05-03T04:12:16.262Z,17.30
2018-05-03T04:13:16.232Z,16.70
2018-05-03T04:14:16.206Z,16.90
2018-05-03T04:15:16.184Z,17.40
2018-05-03T04:16:16.165Z,16.50
2018-05-03T04:17:16.127Z,15.80
2018-05-03T04:18:16.105Z,15.90
2018-05-03T04:19:16.079Z,16.30
2018-05-03T04:20:16.051Z,16.00
2018-05-03T04:21:16.035Z,15.40
2018-05-03T04:22:16.021Z,16.10
2018-05-03T04:23:15.979Z,16.30
2018-05-03T04:24:15.948Z,16.20
2018-05-03T04:25:15.986Z,16.20
2018-05-03T04:26:15.904Z,16.60
2018-05-03T04:27:16.069Z,17.00
2018-05-03T04:28:15.850Z,17.10
2018-05-03T04:29:15.821Z,17.10
2018-05-03T04:30:15.799Z,16.60
2018-05-03T04:31:15.771Z,17.10
2018-05-03T04:32:15.741Z,16.70
2018-05-03T04:33:15.719Z,17.40
2018-05-03T04:34:15.697Z,16.50
2018-05-03T04:35:15.661Z,16.80
2018-05-03T04:36:15.637Z,17.00
2018-05-03T04:37:15.616Z,17.10
2018-05-03T04:38:15.590Z,17.20
2018-05-03T04:39:15.556Z,17.10
2018-05-03T04:40:15.537Z,16.00
2018-05-03T04:41:15.510Z,16.10
2018-05-03T04:42:15.484Z,16.70
2018-05-03T04:43:15.453Z,16.10
2018-05-03T04:44:15.426Z,16.40
2018-05-03T04:45:15.408Z,15.90
2018-05-03T04:46:15.375Z,15.90
2018-05-03T04:47:15.353Z,15.80
2018-05-03T04:48:15.325Z,15.80
2018-05-03T04:49:15.300Z,15.10
2018-05-03T04:50:15.308Z,15.50
2018-05-03T04:51:15.286Z,15.30
2018-05-03T04:52:15.246Z,15.20
2018-05-03T04:53:15.198Z,14.50
2018-05-03T04:54:15.248Z,14.50
2018-05-03T04:55:15.146Z,14.40
2018-05-03T04:56:15.115Z,14.60
2018-05-03T04:57:15.096Z,13.80
2018-05-03T04:58:15.065Z,14.10
2018-05-03T04:59:15.114Z,14.10
2018-05-03T05:00:15.012Z,13.90
2018-05-03T05:01:14.987Z,13.60
2018-05-03T05:02:14.955Z,13.50
2018-05-03T05:03:14.940Z,13.60
2018-05-03T05:04:14.903Z,14.10
2018-05-03T05:05:14.887Z,14.60
2018-05-03T05:06:14.860Z,14.40
2018-05-03T05:07:14.824Z,13.20
2018-05-03T05:08:14.809Z,13.50
2018-05-03T05:09:14.773Z,13.80
2018-05-03T05:10:14.746Z,13.30
2018-05-03T05:11:14.727Z,13.20
2018-05-03T05:12:14.696Z,12.40
2018-05-03T05:13:14.705Z,13.30
2018-05-03T05:14:14.645Z,12.60
2018-05-03T05:15:14.625Z,12.80
2018-05-03T05:16:14.591Z,13.00
2018-05-03T05:17:14.565Z,12.70
2018-05-03T05:18:14.547Z,12.00
2018-05-03T05:19:14.514Z,13.00
2018-05-03T05:20:14.487Z,12.80
2018-05-03T05:21:14.465Z,13.00
2018-05-03T05:22:14.433Z,12.70
2018-05-03T05:23:14.415Z,12.70
2018-05-03T05:24:14.436Z,12.50
2018-05-03T05:25:14.358Z,11.90
2018-05-03T05:26:14.334Z,12.20
2018-05-03T05:27:14.306Z,12.50
2018-05-03T05:28:14.280Z,11.60
2018-05-03T05:29:14.259Z,11.40
2018-05-03T05:30:14.231Z,11.30
2018-05-03T05:31:14.198Z,10.90
2018-05-03T05:32:14.176Z,10.80
2018-05-03T05:33:14.150Z,10.90
2018-05-03T05:34:14.130Z,10.30
2018-05-03T05:35:14.097Z,10.50
2018-05-03T05:36:14.081Z,10.40
2018-05-03T05:37:14.043Z,10.60
2018-05-03T05:38:14.022Z,10.40
2018-05-03T05:39:13.993Z,10.70
2018-05-03T05:40:13.969Z,10.70
2018-05-03T05:41:13.941Z,9.90
2018-05-03T05:42:13.913Z,10.50
2018-05-03T05:43:13.890Z,9.90
2018-05-03T05:44:13.864Z,9.60
2018-05-03T05:45:13.843Z,9.70
2018-05-03T05:46:13.812Z,9.90
2018-05-03T05:47:13.790Z,9.20
2018-05-03T05:48:13.769Z,9.80
2018-05-03T05:49:13.731Z,9.50
2018-05-03T05:50:13.705Z,9.30
2018-05-03T05:51:13.764Z,9.40
2018-05-03T05:52:13.654Z,9.50
2018-05-03T05:53:13.723Z,9.30
2018-05-03T05:54:13.603Z,10.00
2018-05-03T05:55:13.580Z,8.70
2018-05-03T05:56:13.558Z,9.40
2018-05-03T05:57:13.533Z,8.80
2018-05-03T05:58:13.505Z,9.30
2018-05-03T05:59:13.475Z,8.60
2018-05-03T06:00:13.454Z,8.90
2018-05-03T06:01:13.417Z,8.90
2018-05-03T06:02:13.404Z,8.50
2018-05-03T06:03:13.369Z,8.90
2018-05-03T06:04:13.389Z,8.70
2018-05-03T06:05:13.324Z,8.20
2018-05-03T06:06:13.297Z,8.70
2018-05-03T06:07:13.265Z,9.10
2018-05-03T06:08:13.240Z,8.10
2018-05-03T06:09:13.214Z,8.40
2018-05-03T06:10:13.195Z,7.80
2018-05-03T06:11:13.163Z,8.10
2018-05-03T06:12:13.153Z,7.50
2018-05-03T06:13:13.113Z,7.70
2018-05-03T06:14:13.085Z,7.70
2018-05-03T06:15:13.058Z,7.60
2018-05-03T06:16:13.044Z,8.10
2018-05-03T06:17:13.068Z,7.90
2018-05-03T06:18:12.982Z,7.80
2018-05-03T06:19:12.959Z,7.30
2018-05-03T06:20:12.934Z,7.80
2018-05-03T06:21:12.906Z,8.10
2018-05-03T06:22:12.873Z,7.70
2018-05-03T06:23:12.857Z,7.60
2018-05-03T06:24:12.822Z,7.60
2018-05-03T06:25:12.804Z,7.00
2018-05-03T06:26:12.776Z,7.10
2018-05-03T06:27:12.749Z,7.70
2018-05-03T06:28:12.718Z,7.20
2018-05-03T06:29:12.700Z,7.10
2018-05-03T06:30:12.674Z,7.20
2018-05-03T06:31:12.648Z,7.20
2018-05-03T06:32:12.624Z,7.50
2018-05-03T06:33:12.588Z,7.60
2018-05-03T06:34:12.569Z,7.70
2018-05-03T06:35:12.540Z,7.00
2018-05-03T06:36:12.518Z,7.60
2018-05-03T06:37:12.493Z,6.90
2018-05-03T06:38:12.461Z,7.70
2018-05-03T06:39:12.439Z,7.60
2018-05-03T06:40:12.418Z,7.20
2018-05-03T06:41:12.383Z,7.30
2018-05-03T06:42:12.366Z,7.40
2018-05-03T06:43:12.341Z,7.30
2018-05-03T06:44:12.311Z,8.10
2018-05-03T06:45:12.294Z,7.20
2018-05-03T06:46:12.255Z,7.70
2018-05-03T06:47:12.231Z,7.50
2018-05-03T06:48:12.201Z,7.20
2018-05-03T06:49:12.187Z,7.60
2018-05-03T06:50:12.152Z,7.30
2018-05-03T06:51:12.129Z,7.10
2018-05-03T06:52:12.103Z,6.90
2018-05-03T06:53:12.072Z,7.00
2018-05-03T06:54:12.052Z,7.20
2018-05-03T06:55:12.022Z,7.30
2018-05-03T06:56:11.999Z,6.80
2018-05-03T06:57:11.975Z,6.90
2018-05-03T06:58:11.950Z,6.30
2018-05-03T06:59:11.914Z,6.70
2018-05-03T07:00:11.918Z,6.10
2018-05-03T07:01:11.863Z,6.90
2018-05-03T07:02:11.848Z,7.10
2018-05-03T07:03:11.817Z,7.20
2018-05-03T07:04:11.850Z,7.70
2018-05-03T07:05:11.761Z,7.50
2018-05-03T07:06:11.743Z,7.20
2018-05-03T07:07:11.714Z,7.00
2018-05-03T07:08:11.691Z,6.80
2018-05-03T07:09:11.665Z,7.00
2018-05-03T07:10:11.641Z,6.80
2018-05-03T07:11:11.617Z,6.90
2018-05-03T07:12:11.591Z,7.70
2018-05-03T07:13:11.554Z,6.90
2018-05-03T07:14:11.535Z,6.90
2018-05-03T07:15:11.506Z,6.80
2018-05-03T07:16:11.565Z,7.00
2018-05-03T07:17:11.453Z,7.10
2018-05-03T07:18:11.423Z,7.30
2018-05-03T07:19:11.403Z,7.10
2018-05-03T07:20:11.382Z,6.90
2018-05-03T07:21:11.359Z,6.80
2018-05-03T07:22:11.347Z,7.40
2018-05-03T07:23:11.301Z,7.30
2018-05-03T07:24:11.279Z,7.40
2018-05-03T07:25:11.252Z,7.50
2018-05-03T07:26:11.222Z,7.20
2018-05-03T07:27:11.195Z,7.50
2018-05-03T07:28:11.172Z,7.60
2018-05-03T07:29:11.144Z,7.00
2018-05-03T07:30:11.122Z,7.40
2018-05-03T07:31:11.090Z,7.40
2018-05-03T07:32:11.073Z,7.00
2018-05-03T07:33:11.036Z,6.80
2018-05-03T07:34:11.017Z,6.40
2018-05-03T07:35:10.991Z,6.90
2018-05-03T07:36:10.968Z,6.80
2018-05-03T07:37:10.938Z,7.00
2018-05-03T07:38:10.916Z,7.10
2018-05-03T07:39:10.891Z,7.10
2018-05-03T07:40:10.860Z,6.80
2018-05-03T07:41:10.841Z,6.80
2018-05-03T07:42:10.806Z,6.90
2018-05-03T07:43:10.787Z,7.10
2018-05-03T07:44:10.756Z,6.50
2018-05-03T07:45:10.733Z,6.40
2018-05-03T07:46:10.707Z,6.50
2018-05-03T07:47:10.679Z,6.80
2018-05-03T07:48:10.657Z,6.80
2018-05-03T07:49:10.627Z,6.10
2018-05-03T07:50:10.614Z,6.70
2018-05-03T07:51:10.582Z,6.80
2018-05-03T07:52:10.547Z,6.20
2018-05-03T07:53:10.527Z,6.50
2018-05-03T07:54:10.500Z,6.60
2018-05-03T07:55:10.477Z,6.70
2018-05-03T07:56:10.447Z,6.40
2018-05-03T07:57:10.414Z,6.50
2018-05-03T07:58:10.397Z,6.80
2018-05-03T07:59:10.369Z,6.50
2018-05-03T08:00:10.340Z,6.70
2018-05-03T08:01:10.325Z,7.00
2018-05-03T08:02:10.361Z,6.60
2018-05-03T08:03:10.269Z,6.70
2018-05-03T08:04:10.246Z,6.20
2018-05-03T08:05:10.218Z,5.20
2018-05-03T08:06:10.194Z,5.50
2018-05-03T08:07:10.160Z,5.20
2018-05-03T08:08:10.137Z,5.60
2018-05-03T08:09:10.112Z,4.90
2018-05-03T08:10:10.089Z,5.20
2018-05-03T08:11:10.063Z,5.80
2018-05-03T08:12:10.031Z,4.90
2018-05-03T08:13:10.009Z,5.00
2018-05-03T08:14:09.988Z,5.20
2018-05-03T08:15:09.954Z,5.70
2018-05-03T08:16:09.931Z,5.50
2018-05-03T08:17:09.936Z,4.90
2018-05-03T08:18:09.882Z,5.10
2018-05-03T08:19:09.853Z,4.80
2018-05-03T08:20:09.834Z,4.80
2018-05-03T08:21:09.806Z,4.90
2018-05-03T08:22:09.779Z,4.60
2018-05-03T08:23:09.749Z,4.90
2018-05-03T08:24:09.722Z,4.40
2018-05-03T08:25:09.704Z,4.30
2018-05-03T08:26:09.679Z,5.10
2018-05-03T08:27:09.643Z,4.60
2018-05-03T08:28:09.619Z,4.80
2018-05-03T08:29:09.598Z,4.70
2018-05-03T08:30:09.570Z,4.30
2018-05-03T08:31:09.561Z,4.60
2018-05-03T08:32:09.524Z,4.80
2018-05-03T08:33:09.498Z,4.60
2018-05-03T08:34:09.468Z,4.40
2018-05-03T08:35:09.443Z,4.10
2018-05-03T08:36:09.415Z,4.00
2018-05-03T08:37:09.394Z,3.80
2018-05-03T08:38:09.364Z,4.20
2018-05-03T08:39:09.341Z,3.90
2018-05-03T08:40:09.314Z,3.90
2018-05-03T08:41:09.292Z,3.90
2018-05-03T08:42:09.258Z,3.80
2018-05-03T08:43:09.241Z,3.90
2018-05-03T08:44:09.209Z,3.60
2018-05-03T08:45:09.190Z,4.00
2018-05-03T08:46:09.159Z,4.00
2018-05-03T08:47:09.138Z,4.10
2018-05-03T08:48:09.114Z,4.00
2018-05-03T08:49:09.078Z,3.80
2018-05-03T08:50:09.059Z,3.60
2018-05-03T08:51:09.031Z,3.70
2018-05-03T08:52:09.002Z,4.30
2018-05-03T08:53:08.985Z,3.90
2018-05-03T08:54:08.956Z,3.50
2018-05-03T08:55:08.934Z,3.70
2018-05-03T08:56:08.901Z,3.90
2018-05-03T08:57:08.882Z,3.60
2018-05-03T08:58:08.853Z,3.40
2018-05-03T08:59:08.827Z,3.60
2018-05-03T09:00:08.801Z,3.40
2018-05-03T09:01:08.775Z,3.80
2018-05-03T09:02:08.744Z,3.80
2018-05-03T09:03:08.729Z,3.70
2018-05-03T09:04:08.701Z,3.80
2018-05-03T09:05:08.670Z,3.80
2018-05-03T09:06:08.652Z,3.80
2018-05-03T09:07:08.616Z,3.30
2018-05-03T09:08:08.596Z,3.50
2018-05-03T09:09:08.570Z,3.70
2018-05-03T09:10:08.549Z,3.60
2018-05-03T09:11:08.515Z,3.70
2018-05-03T09:12:08.492Z,3.60
2018-05-03T09:13:08.467Z,3.40
2018-05-03T09:14:08.443Z,3.20
2018-05-03T09:15:08.413Z,3.10
2018-05-03T09:16:08.386Z,3.50
2018-05-03T09:17:08.361Z,3.70
2018-05-03T09:18:08.341Z,3.50
2018-05-03T09:19:08.317Z,3.30
2018-05-03T09:20:08.288Z,3.20
2018-05-03T09:21:08.263Z,3.20
2018-05-03T09:22:08.231Z,3.10
2018-05-03T09:23:08.216Z,2.80
2018-05-03T09:24:08.183Z,2.90
2018-05-03T09:25:08.163Z,2.70
2018-05-03T09:26:08.145Z,3.10
2018-05-03T09:27:08.109Z,3.30
2018-05-03T09:28:08.089Z,3.20
2018-05-03T09:29:08.062Z,3.30
2018-05-03T09:30:08.032Z,2.90
2018-05-03T09:31:08.009Z,2.80
2018-05-03T09:32:07.980Z,2.90
2018-05-03T09:33:07.951Z,3.30
2018-05-03T09:34:07.934Z,3.20
2018-05-03T09:35:07.907Z,3.30
2018-05-03T09:36:07.878Z,3.40
2018-05-03T09:37:07.851Z,3.40
2018-05-03T09:38:07.833Z,3.70
2018-05-03T09:39:07.813Z,3.60
2018-05-03T09:40:07.781Z,3.60
2018-05-03T09:41:07.756Z,2.90
2018-05-03T09:42:07.723Z,3.40
2018-05-03T09:43:07.704Z,3.00
2018-05-03T09:44:07.677Z,3.30
2018-05-03T09:45:07.648Z,3.50
2018-05-03T09:46:07.629Z,3.60
2018-05-03T09:47:07.605Z,3.30
2018-05-03T09:48:07.583Z,3.50
2018-05-03T09:49:07.562Z,3.20
2018-05-03T09:50:07.522Z,3.50
2018-05-03T09:51:07.506Z,3.10
2018-05-03T09:52:07.468Z,3.10
2018-05-03T09:53:07.452Z,3.10
2018-05-03T09:54:07.563Z,3.10
2018-05-03T09:55:07.396Z,2.90
2018-05-03T09:56:07.380Z,3.10
2018-05-03T09:57:07.339Z,2.80
2018-05-03T09:58:07.324Z,3.30
2018-05-03T09:59:07.293Z,3.10
2018-05-03T10:00:07.273Z,3.60
2018-05-03T10:01:07.254Z,3.10
2018-05-03T10:02:07.218Z,2.80
2018-05-03T10:03:07.189Z,3.00
2018-05-03T10:04:07.169Z,3.30
2018-05-03T10:05:07.139Z,3.00
2018-05-03T10:06:07.121Z,3.10
2018-05-03T10:07:07.093Z,3.10
2018-05-03T10:08:07.070Z,3.40
2018-05-03T10:09:07.035Z,3.20
2018-05-03T10:10:07.019Z,3.30
2018-05-03T10:11:06.989Z,3.30
2018-05-03T10:12:06.968Z,3.40
2018-05-03T10:13:06.946Z,3.30
2018-05-03T10:14:06.911Z,3.30
2018-05-03T10:15:06.885Z,3.60
2018-05-03T10:16:06.865Z,3.80
2018-05-03T10:17:06.843Z,3.70
2018-05-03T10:18:06.821Z,3.50
2018-05-03T10:19:06.800Z,3.70
2018-05-03T10:20:06.757Z,3.50
2018-05-03T10:21:06.747Z,3.80
2018-05-03T10:22:06.716Z,3.50
2018-05-03T10:23:06.693Z,3.70
2018-05-03T10:24:06.665Z,3.60
2018-05-03T10:25:06.640Z,3.40
2018-05-03T10:26:06.608Z,3.70
2018-05-03T10:27:06.582Z,3.70
2018-05-03T10:28:06.568Z,3.60
2018-05-03T10:29:06.532Z,3.70
2018-05-03T10:30:06.524Z,4.00
2018-05-03T10:31:06.490Z,3.60
2018-05-03T10:32:06.458Z,3.60
2018-05-03T10:33:06.447Z,3.70
2018-05-03T10:34:06.410Z,3.80
2018-05-03T10:35:06.416Z,3.80
2018-05-03T10:36:06.402Z,3.90
2018-05-03T10:37:06.336Z,3.80
2018-05-03T10:38:06.309Z,4.40
2018-05-03T10:39:06.288Z,3.70
2018-05-03T10:40:06.259Z,3.40
2018-05-03T10:41:06.234Z,3.40
2018-05-03T10:42:06.317Z,3.30
2018-05-03T10:43:06.226Z,3.20
2018-05-03T10:44:06.161Z,3.20
2018-05-03T10:45:06.136Z,2.80
2018-05-03T10:46:06.106Z,3.50
2018-05-03T10:47:06.085Z,3.40
2018-05-03T10:48:06.064Z,3.30
2018-05-03T10:49:06.104Z,3.60
2018-05-03T10:50:06.010Z,4.30
2018-05-03T10:51:05.982Z,3.40
2018-05-03T10:52:05.956Z,3.10
2018-05-03T10:53:05.938Z,3.20
2018-05-03T10:54:05.911Z,3.30
2018-05-03T10:55:05.881Z,3.00
2018-05-03T10:56:05.863Z,4.00
2018-05-03T10:57:05.838Z,3.90
2018-05-03T10:58:05.813Z,3.00
2018-05-03T10:59:05.786Z,3.20
2018-05-03T11:00:05.765Z,2.90
2018-05-03T11:01:05.731Z,3.00
2018-05-03T11:02:05.715Z,3.00
2018-05-03T11:03:05.688Z,3.10
2018-05-03T11:04:05.656Z,2.90
2018-05-03T11:05:05.633Z,2.90
2018-05-03T11:06:05.605Z,3.10
2018-05-03T11:07:05.590Z,3.30
2018-05-03T11:08:05.565Z,3.50
2018-05-03T11:09:05.530Z,3.20
2018-05-03T11:10:05.514Z,3.00
2018-05-03T11:11:05.524Z,3.20
2018-05-03T11:12:05.458Z,3.00
2018-05-03T11:13:05.436Z,3.40
2018-05-03T11:14:05.407Z,3.20
2018-05-03T11:15:05.383Z,3.20
2018-05-03T11:16:05.364Z,3.00
2018-05-03T11:17:05.333Z,3.10
2018-05-03T11:18:05.313Z,2.90
2018-05-03T11:19:05.286Z,3.10
2018-05-03T11:20:05.262Z,3.50
2018-05-03T11:21:05.231Z,3.10
2018-05-03T11:22:05.207Z,3.20
2018-05-03T11:23:05.189Z,3.30
2018-05-03T11:24:05.155Z,3.20
2018-05-03T11:25:05.132Z,3.30
2018-05-03T11:26:05.112Z,3.00
2018-05-03T11:27:05.095Z,2.90
2018-05-03T11:28:05.057Z,3.10
2018-05-03T11:29:05.038Z,3.10
2018-05-03T11:30:05.014Z,3.20
2018-05-03T11:31:04.981Z,3.10
2018-05-03T11:32:04.966Z,3.20
2018-05-03T11:33:04.936Z,3.50
2018-05-03T11:34:04.909Z,3.00
2018-05-03T11:35:04.889Z,3.00
2018-05-03T11:36:04.863Z,3.20
2018-05-03T11:37:04.840Z,3.00
2018-05-03T11:38:04.818Z,3.20
2018-05-03T11:39:04.790Z,3.00
2018-05-03T11:40:04.765Z,3.10
2018-05-03T11:41:04.740Z,2.90
2018-05-03T11:42:04.709Z,3.00
2018-05-03T11:43:04.683Z,3.20
2018-05-03T11:44:04.667Z,3.20
2018-05-03T11:45:04.637Z,2.90
2018-05-03T11:46:04.610Z,3.00
2018-05-03T11:47:04.591Z,3.00
2018-05-03T11:48:04.558Z,2.50
2018-05-03T11:49:04.535Z,2.70
2018-05-03T11:50:04.515Z,2.80
2018-05-03T11:51:04.490Z,3.20
2018-05-03T11:52:04.472Z,3.30
2018-05-03T11:53:04.433Z,3.10
2018-05-03T11:54:04.411Z,3.10
2018-05-03T11:55:04.388Z,2.90
2018-05-03T11:56:04.360Z,3.10
2018-05-03T11:57:04.337Z,2.70
2018-05-03T11:58:04.317Z,2.90
2018-05-03T11:59:04.298Z,2.50
2018-05-03T12:00:04.261Z,2.70
2018-05-03T12:01:04.245Z,2.40
2018-05-03T12:02:04.214Z,2.90
2018-05-03T12:03:04.193Z,2.80
2018-05-03T12:04:04.172Z,2.80
2018-05-03T12:05:04.147Z,2.90
2018-05-03T12:06:04.162Z,2.90
2018-05-03T12:07:04.102Z,3.00
2018-05-03T12:08:04.069Z,3.00
2018-05-03T12:09:04.163Z,3.50
2018-05-03T12:10:04.043Z,3.50
2018-05-03T12:11:04.003Z,2.40
2018-05-03T12:12:04.013Z,2.50
2018-05-03T12:13:03.942Z,2.80
2018-05-03T12:14:03.929Z,2.80
2018-05-03T12:15:03.892Z,3.20
2018-05-03T12:16:03.881Z,3.00
2018-05-03T12:17:03.849Z,2.70
2018-05-03T12:18:03.828Z,3.00
2018-05-03T12:19:03.804Z,2.80
2018-05-03T12:20:03.770Z,2.60
2018-05-03T12:21:03.768Z,3.10
2018-05-03T12:22:03.724Z,2.80
2018-05-03T12:23:03.708Z,2.70
2018-05-03T12:24:03.673Z,2.80
2018-05-03T12:25:03.660Z,2.80
2018-05-03T12:26:03.627Z,2.80
2018-05-03T12:27:03.609Z,2.60
2018-05-03T12:28:03.582Z,3.00
2018-05-03T12:29:03.556Z,3.00
2018-05-03T12:30:03.538Z,2.70
2018-05-03T12:31:03.506Z,3.20
2018-05-03T12:32:03.491Z,2.90
2018-05-03T12:33:03.458Z,2.70
2018-05-03T12:34:03.443Z,3.10
2018-05-03T12:35:03.416Z,3.30
2018-05-03T12:36:03.397Z,4.00
2018-05-03T12:37:03.364Z,3.10
2018-05-03T12:38:03.343Z,3.10
2018-05-03T12:39:03.316Z,3.10
2018-05-03T12:40:03.303Z,3.20
2018-05-03T12:41:03.271Z,3.10
2018-05-03T12:42:03.243Z,3.40
2018-05-03T12:43:03.227Z,2.70
2018-05-03T12:44:03.196Z,3.70
2018-05-03T12:45:03.173Z,4.00
2018-05-03T12:46:03.152Z,3.00
2018-05-03T12:47:03.132Z,4.50
2018-05-03T12:48:03.104Z,3.20
2018-05-03T12:49:03.082Z,3.30
2018-05-03T12:50:03.054Z,3.40
2018-05-03T12:51:03.032Z,2.60
2018-05-03T12:52:03.007Z,2.90
2018-05-03T12:53:02.984Z,2.60
2018-05-03T12:54:02.965Z,2.90
2018-05-03T12:55:02.935Z,2.70
2018-05-03T12:56:02.915Z,2.90
2018-05-03T12:57:02.890Z,3.30
2018-05-03T12:58:02.866Z,3.30
2018-05-03T12:59:02.842Z,3.30
2018-05-03T13:00:02.820Z,2.70
2018-05-03T13:01:02.795Z,2.70
2018-05-03T13:02:02.777Z,3.20
2018-05-03T13:03:02.748Z,4.10
2018-05-03T13:04:02.728Z,3.80
2018-05-03T13:05:02.695Z,3.40
2018-05-03T13:06:02.685Z,3.30
2018-05-03T13:07:02.652Z,2.70
2018-05-03T13:08:02.631Z,3.30
2018-05-03T13:09:02.604Z,4.20
2018-05-03T13:10:02.588Z,3.00
2018-05-03T13:11:02.566Z,3.60
2018-05-03T13:12:02.535Z,3.40